createdAt,value
2018-10-19T00:03:43.649Z,45.83
2018-10-19T00:08:46.930Z,45.94
2018-10-19T00:13:50.223Z,45.82
2018-10-19T00:18:53.501Z,46.19
2018-10-19T00:23:56.773Z,45.88
2018-10-19T00:29:00.244Z,46.30
2018-10-19T00:34:03.569Z,45.79
2018-10-19T00:39:09.176Z,46.24
2018-10-19T00:44:12.424Z,45.86
2018-10-19T00:49:15.706Z,45.89
2018-10-19T00:54:18.982Z,45.85
2018-10-19T00:59:22.257Z,46.34
2018-10-19T01:04:25.525Z,46.28
2018-10-19T01:09:28.816Z,46.50
2018-10-19T01:14:32.085Z,46.09
2018-10-19T01:19:35.365Z,46.11
2018-10-19T01:24:38.640Z,46.47
2018-10-19T01:29:41.926Z,46.37
2018-10-19T01:34:45.241Z,46.24
2018-10-19T01:39:48.522Z,46.27
2018-10-19T01:44:51.811Z,45.87
2018-10-19T01:49:55.092Z,46.23
2018-10-19T01:54:58.394Z,46.01
2018-10-19T02:00:01.683Z,46.37
2018-10-19T02:05:05.724Z,45.98
2018-10-19T02:10:08.982Z,46.04
2018-10-19T02:15:12.287Z,46.41
2018-10-19T02:20:15.570Z,45.97
2018-10-19T02:25:18.849Z,46.60
2018-10-19T02:30:22.123Z,46.65
2018-10-19T02:35:25.392Z,46.68
2018-10-19T02:40:28.678Z,46.62
2018-10-19T02:45:34.199Z,46.04
2018-10-19T02:50:37.484Z,46.50
2018-10-19T02:55:40.826Z,46.16
2018-10-19T03:00:44.101Z,46.41
2018-10-19T03:05:47.376Z,46.11
2018-10-19T03:10:50.682Z,46.59
2018-10-19T03:15:53.958Z,46.08
2018-10-19T03:20:57.293Z,46.51
2018-10-19T03:26:00.556Z,46.51
2018-10-19T03:31:04.129Z,46.48
2018-10-19T03:36:07.384Z,46.31
2018-10-19T03:41:10.750Z,46.44
2018-10-19T03:46:13.990Z,45.96
2018-10-19T03:51:17.348Z,45.94
2018-10-19T03:56:20.573Z,46.28
2018-10-19T04:01:23.854Z,46.01
2018-10-19T04:06:27.223Z,46.29
2018-10-19T04:11:30.496Z,46.41
2018-10-19T04:16:33.775Z,46.63
2018-10-19T04:21:37.098Z,46.55
2018-10-19T04:26:40.385Z,47.16
2018-10-19T04:31:43.677Z,46.83
2018-10-19T04:36:46.972Z,47.07
2018-10-19T04:41:50.436Z,46.97
2018-10-19T04:46:53.633Z,46.97
2018-10-19T04:51:57.036Z,46.76
2018-10-19T04:57:00.352Z,47.14
2018-10-19T05:02:03.623Z,46.66
2018-10-19T05:07:06.923Z,46.88
2018-10-19T05:12:10.210Z,47.35
2018-10-19T05:17:13.596Z,47.07
2018-10-19T05:22:16.806Z,47.11
2018-10-19T05:27:20.113Z,47.13
2018-10-19T05:32:23.391Z,46.88
2018-10-19T05:37:26.671Z,47.09
2018-10-19T05:42:30.178Z,46.50
2018-10-19T05:47:33.474Z,46.66
2018-10-19T05:52:37.210Z,46.58
2018-10-19T05:57:40.490Z,46.33
2018-10-19T06:02:43.900Z,46.06
2018-10-19T06:07:47.137Z,45.42
2018-10-19T06:12:50.414Z,45.38
2018-10-19T06:17:53.704Z,45.62
2018-10-19T06:22:57.011Z,45.29
2018-10-19T06:28:00.313Z,44.96
2018-10-19T06:33:03.585Z,45.33
2018-10-19T06:38:07.263Z,45.17
2018-10-19T06:43:10.511Z,44.93
2018-10-19T06:48:13.790Z,44.87
2018-10-19T06:53:17.069Z,44.87
2018-10-19T06:58:20.341Z,44.54
2018-10-19T07:03:23.619Z,44.40
2018-10-19T07:08:26.946Z,44.74
2018-10-19T07:13:30.206Z,44.27
2018-10-19T07:18:33.473Z,43.81
2018-10-19T07:23:36.758Z,41.84
2018-10-19T07:28:40.054Z,41.82
2018-10-19T07:33:43.334Z,42.30
2018-10-19T07:38:46.617Z,42.15
2018-10-19T07:43:49.890Z,41.88
2018-10-19T07:48:53.180Z,42.29
2018-10-19T07:53:56.495Z,42.21
2018-10-19T07:58:59.805Z,42.05
2018-10-19T08:04:03.185Z,41.82
2018-10-19T08:09:08.958Z,41.61
2018-10-19T08:14:12.315Z,41.86
2018-10-19T08:19:15.557Z,41.78
2018-10-19T08:24:18.828Z,41.41
2018-10-19T08:29:22.106Z,41.92
2018-10-19T08:34:25.392Z,41.51
2018-10-19T08:39:28.715Z,42.10
2018-10-19T08:44:32.128Z,42.04
2018-10-19T08:49:35.590Z,41.93
2018-10-19T08:54:38.884Z,42.29
2018-10-19T08:59:42.187Z,41.65
2018-10-19T09:04:45.562Z,42.40
2018-10-19T09:09:48.856Z,41.92
2018-10-19T09:14:57.996Z,42.49
2018-10-19T09:20:01.293Z,42.05
2018-10-19T09:25:04.804Z,42.59
2018-10-19T09:30:08.351Z,42.44
2018-10-19T09:35:12.160Z,42.37
2018-10-19T09:40:15.524Z,42.47
2018-10-19T09:45:18.990Z,42.79
2018-10-19T09:50:22.578Z,42.06
2018-10-19T09:55:26.293Z,42.11
2018-10-19T10:00:34.982Z,42.31
2018-10-19T10:05:38.354Z,42.37
2018-10-19T10:10:41.638Z,42.09
2018-10-19T10:15:44.972Z,41.92
2018-10-19T10:20:48.217Z,42.32
2018-10-19T10:25:51.550Z,42.65
2018-10-19T10:30:54.876Z,41.95
2018-10-19T10:35:58.253Z,41.75
2018-10-19T10:41:01.806Z,42.13
2018-10-19T10:46:05.299Z,42.54
2018-10-19T10:51:08.597Z,42.37
2018-10-19T10:56:11.893Z,42.48
2018-10-19T11:01:15.597Z,42.10
2018-10-19T11:06:18.873Z,42.70
2018-10-19T11:11:22.146Z,42.33
2018-10-19T11:16:25.420Z,41.90
2018-10-19T11:21:28.693Z,42.40
2018-10-19T11:26:32.053Z,41.69
2018-10-19T11:31:35.572Z,41.77
2018-10-19T11:36:38.862Z,41.98
2018-10-19T11:41:42.174Z,41.42
2018-10-19T11:46:45.478Z,41.33
2018-10-19T11:51:49.177Z,41.66
2018-10-19T11:56:52.545Z,41.31
2018-10-19T12:01:55.838Z,41.66
2018-10-19T12:06:59.287Z,41.43
2018-10-19T12:12:03.306Z,41.79
2018-10-19T12:17:06.619Z,41.50
2018-10-19T12:22:09.903Z,41.75
2018-10-19T12:27:13.310Z,41.46
2018-10-19T12:32:16.774Z,41.80
2018-10-19T12:37:20.063Z,41.78
2018-10-19T12:42:23.366Z,41.28
2018-10-19T12:47:37.374Z,41.57
2018-10-19T12:52:40.761Z,41.06
2018-10-19T12:57:44.129Z,41.46
2018-10-19T13:02:47.454Z,41.12
2018-10-19T13:07:50.795Z,41.14
2018-10-19T13:12:54.100Z,40.96
2018-10-19T13:17:57.481Z,41.15
2018-10-19T13:23:00.790Z,41.18
2018-10-19T13:28:04.368Z,41.12
2018-10-19T13:33:07.815Z,40.88
2018-10-19T13:38:11.169Z,41.08
2018-10-19T13:43:14.448Z,40.89
2018-10-19T13:48:18.054Z,41.00
2018-10-19T13:53:21.783Z,41.01
2018-10-19T13:58:25.756Z,41.52
2018-10-19T14:03:29.216Z,42.10
2018-10-19T14:08:32.492Z,41.88
2018-10-19T14:13:35.861Z,41.68
2018-10-19T14:18:39.161Z,41.96
2018-10-19T14:23:42.477Z,42.08
2018-10-19T14:28:45.758Z,41.82
2018-10-19T14:33:49.054Z,41.92
2018-10-19T14:38:52.366Z,42.07
2018-10-19T14:43:55.720Z,41.76
2018-10-19T14:48:59.444Z,41.53
2018-10-19T14:54:02.695Z,41.27
2018-10-19T14:59:06.575Z,41.71
2018-10-19T15:04:09.834Z,41.46
2018-10-19T15:09:13.323Z,41.41
2018-10-19T15:14:16.556Z,41.24
2018-10-19T15:19:19.930Z,41.46
2018-10-19T15:24:23.210Z,41.02
2018-10-19T15:29:26.571Z,40.95
2018-10-19T15:34:30.137Z,41.45
2018-10-19T15:39:33.416Z,41.49
2018-10-19T15:44:36.783Z,41.21
2018-10-19T15:49:40.070Z,41.62
2018-10-19T15:54:43.405Z,41.10
2018-10-19T15:59:46.981Z,41.44
2018-10-19T16:04:50.696Z,41.28
2018-10-19T16:09:54.158Z,41.49
2018-10-19T16:14:57.479Z,41.24
2018-10-19T16:20:01.491Z,41.26
2018-10-19T16:25:06.866Z,41.42
2018-10-19T16:30:11.256Z,41.66
2018-10-19T16:35:14.959Z,41.72
2018-10-19T16:40:18.300Z,41.44
2018-10-19T16:45:21.609Z,42.08
2018-10-19T16:50:24.888Z,41.96
2018-10-19T16:55:28.170Z,42.28
2018-10-19T17:00:31.509Z,42.04
2018-10-19T17:05:34.889Z,42.41
2018-10-19T17:10:38.251Z,42.31
2018-10-19T17:15:41.524Z,42.21
2018-10-19T17:20:44.818Z,42.01
2018-10-19T17:25:48.229Z,42.01
2018-10-19T17:30:52.042Z,42.49
2018-10-19T17:35:55.479Z,42.56
2018-10-19T17:40:58.778Z,42.12
2018-10-19T17:46:02.129Z,42.22
2018-10-19T17:51:05.483Z,42.68
2018-10-19T17:56:08.864Z,42.71
2018-10-19T18:01:12.174Z,42.19
2018-10-19T18:06:15.563Z,42.77
2018-10-19T18:11:18.869Z,42.43
2018-10-19T18:16:23.003Z,42.37
2018-10-19T18:21:26.521Z,42.97
2018-10-19T18:26:29.874Z,42.77
2018-10-19T18:31:33.342Z,43.07
2018-10-19T18:36:36.922Z,42.99
2018-10-19T18:41:40.403Z,42.50
2018-10-19T18:46:43.657Z,42.85
2018-10-19T18:51:47.017Z,42.41
2018-10-19T18:56:50.352Z,42.57
2018-10-19T19:01:53.701Z,42.80
2018-10-19T19:06:57.170Z,42.33
2018-10-19T19:12:00.485Z,42.83
2018-10-19T19:17:03.846Z,42.62
2018-10-19T19:22:07.377Z,42.56
2018-10-19T19:27:10.877Z,42.81
2018-10-19T19:32:14.275Z,42.42
2018-10-19T19:37:17.578Z,42.44
2018-10-19T19:42:26.377Z,42.84
2018-10-19T19:47:40.749Z,42.44
2018-10-19T19:52:44.066Z,43.02
2018-10-19T19:57:47.361Z,42.75
2018-10-19T20:02:51.225Z,42.74
2018-10-19T20:07:54.531Z,42.70
2018-10-19T20:12:57.862Z,42.97
2018-10-19T20:18:02.022Z,42.79
2018-10-19T20:23:06.473Z,43.12
2018-10-19T20:28:09.799Z,42.86
2018-10-19T20:33:13.121Z,42.86
2018-10-19T20:38:16.485Z,42.94
2018-10-19T20:43:20.147Z,43.23
2018-10-19T20:48:23.458Z,42.90
2018-10-19T20:53:26.855Z,42.97
2018-10-19T20:58:30.240Z,43.17
2018-10-19T21:03:33.537Z,43.40
2018-10-19T21:08:37.011Z,42.93
2018-10-19T21:13:40.306Z,43.06
2018-10-19T21:18:43.592Z,43.08
2018-10-19T21:23:46.878Z,42.89
2018-10-19T21:28:50.479Z,43.41
2018-10-19T21:33:53.897Z,43.09
2018-10-19T21:38:57.446Z,43.21
2018-10-19T21:44:00.909Z,43.43
2018-10-19T21:49:04.201Z,43.16
2018-10-19T21:54:07.645Z,43.41
2018-10-19T21:59:11.760Z,43.39
2018-10-19T22:04:15.128Z,43.36
2018-10-19T22:09:18.578Z,43.46
2018-10-19T22:14:21.864Z,43.61
2018-10-19T22:19:25.146Z,43.11
2018-10-19T22:24:28.529Z,43.54
2018-10-19T22:29:31.825Z,43.57
2018-10-19T22:34:35.185Z,43.55
2018-10-19T22:39:38.510Z,43.66
2018-10-19T22:44:41.988Z,43.52
2018-10-19T22:49:45.307Z,43.71
2018-10-19T22:54:48.644Z,43.91
2018-10-19T22:59:52.017Z,43.61
2018-10-19T23:04:55.362Z,43.75
2018-10-19T23:09:58.671Z,43.51
2018-10-19T23:15:02.468Z,43.60
2018-10-19T23:20:07.851Z,43.55
2018-10-19T23:25:11.213Z,43.69
2018-10-19T23:30:14.584Z,43.67
2018-10-19T23:35:18.831Z,43.75
2018-10-19T23:40:22.121Z,43.02
2018-10-19T23:45:25.411Z,43.46
2018-10-19T23:50:28.966Z,43.29
2018-10-19T23:55:32.348Z,43.53
